createdAt,value
2019-02-09T00:02:09.014Z,16.53
2019-02-09T00:05:15.101Z,19.70
2019-02-09T00:08:20.995Z,18.57
2019-02-09T00:11:26.981Z,16.27
2019-02-09T00:14:32.940Z,13.50
2019-02-09T00:17:38.942Z,14.73
2019-02-09T00:20:44.819Z,14.20
2019-02-09T00:23:50.773Z,14.63
2019-02-09T00:26:56.518Z,24.30
2019-02-09T00:30:02.293Z,15.13
2019-02-09T00:33:08.275Z,14.80
2019-02-09T00:36:14.168Z,14.47
2019-02-09T00:39:19.945Z,14.93
2019-02-09T00:42:25.718Z,14.83
2019-02-09T00:45:31.611Z,14.93
2019-02-09T00:48:37.402Z,15.57
2019-02-09T00:51:43.162Z,15.47
2019-02-09T00:54:49.019Z,15.33
2019-02-09T00:57:56.140Z,14.07
2019-02-09T01:01:42.018Z,14.40
2019-02-09T01:04:49.514Z,15.20
2019-02-09T01:07:55.572Z,14.67
2019-02-09T01:11:01.443Z,14.83
2019-02-09T01:14:07.354Z,17.20
2019-02-09T01:17:13.119Z,18.77
2019-02-09T01:20:21.867Z,17.60
2019-02-09T01:23:27.632Z,15.63
2019-02-09T01:26:33.521Z,16.67
2019-02-09T01:29:39.373Z,17.37
2019-02-09T01:32:45.249Z,16.80
2019-02-09T01:35:51.026Z,15.87
2019-02-09T01:38:56.799Z,16.73
2019-02-09T01:42:02.574Z,16.53
2019-02-09T01:45:10.057Z,17.83
2019-02-09T01:48:15.826Z,21.03
2019-02-09T01:51:21.709Z,20.30
2019-02-09T01:54:27.476Z,16.63
2019-02-09T01:57:33.368Z,15.60
2019-02-09T02:00:39.343Z,18.77
2019-02-09T02:03:45.245Z,18.63
2019-02-09T02:06:51.002Z,17.63
2019-02-09T02:09:56.780Z,16.70
2019-02-09T02:13:03.533Z,17.23
2019-02-09T02:16:09.503Z,19.97
2019-02-09T02:19:15.294Z,19.53
2019-02-09T02:22:21.077Z,19.07
2019-02-09T02:25:27.281Z,18.10
2019-02-09T02:28:33.192Z,16.73
2019-02-09T02:31:38.961Z,16.77
2019-02-09T02:34:44.791Z,16.30
2019-02-09T02:37:50.676Z,16.80
2019-02-09T02:40:56.424Z,17.17
2019-02-09T02:44:02.203Z,15.93
2019-02-09T02:47:07.970Z,16.23
2019-02-09T02:50:16.432Z,16.23
2019-02-09T02:53:22.195Z,16.63
2019-02-09T02:56:28.006Z,15.60
2019-02-09T02:59:33.877Z,14.53
2019-02-09T03:02:39.730Z,14.33
2019-02-09T03:05:45.526Z,16.70
2019-02-09T03:08:51.465Z,15.13
2019-02-09T03:12:03.590Z,14.63
2019-02-09T03:15:16.616Z,13.97
2019-02-09T03:18:22.411Z,14.07
2019-02-09T03:21:28.229Z,13.93
2019-02-09T03:24:34.011Z,14.50
2019-02-09T03:27:39.894Z,14.07
2019-02-09T03:30:48.430Z,12.73
2019-02-09T03:33:53.242Z,13.33
2019-02-09T03:36:59.113Z,13.97
2019-02-09T03:40:06.512Z,14.37
2019-02-09T03:43:12.281Z,13.90
2019-02-09T03:46:18.146Z,13.60
2019-02-09T03:49:23.923Z,14.40
2019-02-09T03:52:29.897Z,12.67
2019-02-09T03:55:35.658Z,13.60
2019-02-09T03:58:41.448Z,13.60
2019-02-09T04:01:47.211Z,13.00
2019-02-09T04:04:53.083Z,13.70
2019-02-09T04:07:59.043Z,14.23
2019-02-09T04:11:04.998Z,14.13
2019-02-09T04:14:10.963Z,14.40
2019-02-09T04:17:16.752Z,14.80
2019-02-09T04:20:25.007Z,14.37
2019-02-09T04:23:31.384Z,13.80
2019-02-09T04:26:37.175Z,14.77
2019-02-09T04:29:43.062Z,14.83
2019-02-09T04:32:49.091Z,14.73
2019-02-09T04:35:54.910Z,14.93
2019-02-09T04:39:00.812Z,15.33
2019-02-09T04:42:11.194Z,14.93
2019-02-09T04:45:17.623Z,15.57
2019-02-09T04:48:23.546Z,14.17
2019-02-09T04:51:29.455Z,14.63
2019-02-09T04:54:35.387Z,15.47
2019-02-09T04:57:41.374Z,16.17
2019-02-09T05:00:47.303Z,17.27
2019-02-09T05:04:47.233Z,20.30
2019-02-09T05:08:01.340Z,20.13
2019-02-09T05:11:07.253Z,43.90
2019-02-09T05:14:13.195Z,31.10
2019-02-09T05:17:18.966Z,20.67
2019-02-09T05:20:25.436Z,22.33
2019-02-09T05:23:31.361Z,30.73
2019-02-09T05:26:37.146Z,23.43
2019-02-09T05:29:42.913Z,29.90
2019-02-09T05:32:48.926Z,20.17
2019-02-09T05:35:54.698Z,21.23
2019-02-09T05:39:00.606Z,28.57
2019-02-09T05:42:07.943Z,24.13
2019-02-09T05:45:16.785Z,20.80
2019-02-09T05:48:22.557Z,21.07
2019-02-09T05:51:28.337Z,20.23
2019-02-09T05:54:34.128Z,20.63
2019-02-09T05:57:40.129Z,21.70
2019-02-09T06:00:46.101Z,18.73
2019-02-09T06:03:51.857Z,17.67
2019-02-09T06:06:57.706Z,19.23
2019-02-09T06:10:04.249Z,17.27
2019-02-09T06:13:10.355Z,17.73
2019-02-09T06:16:16.192Z,18.80
2019-02-09T06:19:21.953Z,21.13
2019-02-09T06:22:27.943Z,21.67
2019-02-09T06:25:34.944Z,21.67
2019-02-09T06:28:40.766Z,24.73
2019-02-09T06:31:46.568Z,22.47
2019-02-09T06:34:52.333Z,23.17
2019-02-09T06:37:58.663Z,20.33
2019-02-09T06:41:04.627Z,19.20
2019-02-09T06:44:10.533Z,19.93
2019-02-09T06:47:16.332Z,21.73
2019-02-09T06:50:27.853Z,22.17
2019-02-09T06:53:33.798Z,20.83
2019-02-09T06:56:39.570Z,21.47
2019-02-09T06:59:45.335Z,22.27
2019-02-09T07:02:51.325Z,23.37
2019-02-09T07:05:57.139Z,24.93
2019-02-09T07:09:03.471Z,27.53
2019-02-09T07:12:10.063Z,25.83
2019-02-09T07:15:27.611Z,25.47
2019-02-09T07:18:35.094Z,22.97
2019-02-09T07:21:50.772Z,25.97
2019-02-09T07:24:56.663Z,23.60
2019-02-09T07:28:02.533Z,23.80
2019-02-09T07:31:08.517Z,25.10
2019-02-09T07:34:14.309Z,22.73
2019-02-09T07:37:20.207Z,22.73
2019-02-09T07:40:26.365Z,21.90
2019-02-09T07:43:32.219Z,21.23
2019-02-09T07:46:37.973Z,27.67
2019-02-09T07:49:43.782Z,27.17
2019-02-09T07:52:53.302Z,26.13
2019-02-09T07:55:59.177Z,31.73
2019-02-09T07:59:05.111Z,29.13
2019-02-09T08:02:20.390Z,31.87
2019-02-09T08:05:28.626Z,30.33
2019-02-09T08:08:34.407Z,30.93
2019-02-09T08:11:40.341Z,31.43
2019-02-09T08:14:46.262Z,31.60
2019-02-09T08:17:52.046Z,31.90
2019-02-09T08:20:57.944Z,31.93
2019-02-09T08:24:03.731Z,30.67
2019-02-09T08:27:09.586Z,31.53
2019-02-09T08:30:19.277Z,32.30
2019-02-09T08:33:26.186Z,32.93
2019-02-09T08:36:31.983Z,32.37
2019-02-09T08:39:37.929Z,32.33
2019-02-09T08:42:43.786Z,31.10
2019-02-09T08:45:49.642Z,32.73
2019-02-09T08:48:55.393Z,31.57
2019-02-09T08:52:01.290Z,32.00
2019-02-09T08:55:07.337Z,32.77
2019-02-09T08:58:13.105Z,34.03
2019-02-09T09:01:19.035Z,31.83
2019-02-09T09:04:24.851Z,31.27
2019-02-09T09:07:30.648Z,32.60
2019-02-09T09:10:36.509Z,30.33
2019-02-09T09:13:42.378Z,31.00
2019-02-09T09:16:48.424Z,32.13
2019-02-09T09:19:54.187Z,32.00
2019-02-09T09:23:00.194Z,30.13
2019-02-09T09:26:06.280Z,30.60
2019-02-09T09:29:12.069Z,29.73
2019-02-09T09:32:17.854Z,31.30
2019-02-09T09:35:23.879Z,31.73
2019-02-09T09:38:29.646Z,30.03
2019-02-09T09:41:36.431Z,28.53
2019-02-09T09:44:42.344Z,29.67
2019-02-09T09:47:48.330Z,29.57
2019-02-09T09:50:54.173Z,27.47
2019-02-09T09:54:00.210Z,27.30
2019-02-09T09:57:06.222Z,26.40
2019-02-09T10:00:13.780Z,25.97
2019-02-09T10:03:43.306Z,26.00
2019-02-09T10:06:47.596Z,25.87
2019-02-09T10:09:53.978Z,26.00
2019-02-09T10:12:59.885Z,26.70
2019-02-09T10:16:05.865Z,25.67
2019-02-09T10:19:11.696Z,25.50
2019-02-09T10:22:18.100Z,26.73
2019-02-09T10:25:23.952Z,22.83
2019-02-09T10:28:29.829Z,23.53
2019-02-09T10:31:36.562Z,23.40
2019-02-09T10:34:42.316Z,22.47
2019-02-09T10:37:48.513Z,24.07
2019-02-09T10:40:54.390Z,24.80
2019-02-09T10:44:00.183Z,26.60
2019-02-09T10:47:06.390Z,23.90
2019-02-09T10:50:18.560Z,61.70
2019-02-09T10:53:24.349Z,94.30
2019-02-09T10:56:30.124Z,36.00
2019-02-09T10:59:35.882Z,39.13
2019-02-09T11:02:41.642Z,28.20
2019-02-09T11:05:47.605Z,48.40
2019-02-09T11:08:53.417Z,40.93
2019-02-09T11:11:59.286Z,33.23
2019-02-09T11:15:06.046Z,30.60
2019-02-09T11:18:12.061Z,64.27
2019-02-09T11:21:17.906Z,29.23
2019-02-09T11:24:23.814Z,64.77
2019-02-09T11:27:29.592Z,34.70
2019-02-09T11:30:35.573Z,29.63
2019-02-09T11:33:42.003Z,32.73
2019-02-09T11:36:47.936Z,33.50
2019-02-09T11:39:53.813Z,34.23
2019-02-09T11:42:59.836Z,32.77
2019-02-09T11:46:05.813Z,30.80
2019-02-09T11:49:11.579Z,29.77
2019-02-09T11:52:17.390Z,29.20
2019-02-09T11:55:23.345Z,30.03
2019-02-09T11:58:29.156Z,27.47
2019-02-09T12:01:36.072Z,25.77
2019-02-09T12:04:41.997Z,25.87
2019-02-09T12:07:48.875Z,22.60
2019-02-09T12:10:54.635Z,22.00
2019-02-09T12:14:00.475Z,23.13
2019-02-09T12:17:06.455Z,23.53
2019-02-09T12:20:14.286Z,24.00
2019-02-09T12:23:20.040Z,22.73
2019-02-09T12:26:25.816Z,22.33
2019-02-09T12:29:31.605Z,24.37
2019-02-09T12:32:37.528Z,22.87
2019-02-09T12:35:43.911Z,19.97
2019-02-09T12:38:49.802Z,22.57
2019-02-09T12:41:55.716Z,20.20
2019-02-09T12:45:01.660Z,19.37
2019-02-09T12:48:07.967Z,18.63
2019-02-09T12:51:13.832Z,19.50
2019-02-09T12:54:19.746Z,19.50
2019-02-09T12:57:25.596Z,19.07
2019-02-09T13:00:33.116Z,18.30
2019-02-09T13:03:38.873Z,17.43
2019-02-09T13:06:44.651Z,15.07
2019-02-09T13:09:50.460Z,15.70
2019-02-09T13:12:56.226Z,17.17
2019-02-09T13:16:02.008Z,18.60
2019-02-09T13:19:08.011Z,19.43
2019-02-09T13:22:13.933Z,19.73
2019-02-09T13:25:19.860Z,21.30
2019-02-09T13:28:25.755Z,17.97
2019-02-09T13:31:31.544Z,21.17
2019-02-09T13:34:37.309Z,22.23
2019-02-09T13:37:43.185Z,18.73
2019-02-09T13:40:49.064Z,14.57
2019-02-09T13:43:54.873Z,16.63
2019-02-09T13:47:00.649Z,13.67
2019-02-09T13:50:07.394Z,14.00
2019-02-09T13:53:13.544Z,12.80
2019-02-09T13:56:19.362Z,12.57
2019-02-09T13:59:25.139Z,19.47
2019-02-09T14:02:32.246Z,17.43
2019-02-09T14:05:38.222Z,17.23
2019-02-09T14:08:43.992Z,17.30
2019-02-09T14:11:49.776Z,21.97
2019-02-09T14:14:55.624Z,16.77
2019-02-09T14:18:03.468Z,19.07
2019-02-09T14:21:09.360Z,17.97
2019-02-09T14:24:15.226Z,18.63
2019-02-09T14:27:22.870Z,18.13
2019-02-09T14:30:31.423Z,19.10
2019-02-09T14:33:37.465Z,20.60
2019-02-09T14:36:43.249Z,20.43
2019-02-09T14:39:49.062Z,20.50
2019-02-09T14:42:55.077Z,21.67
2019-02-09T14:46:00.992Z,22.20
2019-02-09T14:49:07.652Z,23.63
2019-02-09T14:52:13.583Z,23.57
2019-02-09T14:55:38.467Z,22.10
2019-02-09T14:58:44.306Z,22.97
2019-02-09T15:01:50.095Z,22.37
2019-02-09T15:04:55.902Z,21.33
2019-02-09T15:08:01.888Z,21.83
2019-02-09T15:11:07.832Z,20.47
2019-02-09T15:14:13.613Z,21.40
2019-02-09T15:17:19.401Z,21.10
2019-02-09T15:20:28.115Z,20.50
2019-02-09T15:23:34.028Z,20.33
2019-02-09T15:26:40.004Z,24.73
2019-02-09T15:29:45.856Z,25.33
2019-02-09T15:32:51.723Z,26.37
2019-02-09T15:35:58.711Z,35.73
2019-02-09T15:39:07.863Z,31.27
2019-02-09T15:42:14.061Z,27.50
2019-02-09T15:45:20.805Z,26.63
2019-02-09T15:48:26.568Z,26.57
2019-02-09T15:51:32.436Z,27.37
2019-02-09T15:54:38.216Z,28.60
2019-02-09T15:57:44.180Z,27.67
2019-02-09T16:00:50.089Z,27.03
2019-02-09T16:03:56.042Z,29.03
2019-02-09T16:07:01.849Z,29.23
2019-02-09T16:10:08.594Z,29.80
2019-02-09T16:13:14.566Z,33.17
2019-02-09T16:16:20.327Z,36.83
2019-02-09T16:19:26.167Z,39.03
2019-02-09T16:22:31.956Z,48.77
2019-02-09T16:25:37.932Z,83.73
2019-02-09T16:28:43.685Z,72.23
2019-02-09T16:31:49.561Z,65.53
2019-02-09T16:34:55.336Z,65.17
2019-02-09T16:38:01.334Z,69.57
2019-02-09T16:41:07.326Z,46.70
2019-02-09T16:44:13.154Z,49.77
2019-02-09T16:47:20.092Z,58.33
2019-02-09T16:50:26.285Z,74.70
2019-02-09T16:53:32.161Z,76.20
2019-02-09T16:56:37.967Z,54.43
2019-02-09T16:59:43.853Z,53.23
2019-02-09T17:02:49.862Z,50.50
2019-02-09T17:05:55.662Z,49.53
2019-02-09T17:09:01.515Z,52.60
2019-02-09T17:12:08.821Z,50.63
2019-02-09T17:15:17.818Z,60.70
2019-02-09T17:18:23.702Z,58.30
2019-02-09T17:21:29.538Z,49.63
2019-02-09T17:24:35.289Z,50.37
2019-02-09T17:27:41.139Z,46.57
2019-02-09T17:30:46.906Z,42.67
2019-02-09T17:33:52.683Z,42.07
2019-02-09T17:36:58.443Z,42.60
2019-02-09T17:40:05.742Z,39.20
2019-02-09T17:43:11.948Z,78.47
2019-02-09T17:46:18.629Z,184.03
2019-02-09T17:49:25.511Z,128.90
2019-02-09T17:52:31.363Z,63.77
2019-02-09T17:55:37.250Z,77.63
2019-02-09T17:58:43.057Z,58.50
2019-02-09T18:01:48.802Z,52.13
2019-02-09T18:04:54.559Z,57.57
2019-02-09T18:08:00.353Z,52.27
2019-02-09T18:11:06.566Z,60.37
2019-02-09T18:14:12.338Z,58.80
2019-02-09T18:17:18.258Z,62.03
2019-02-09T18:20:24.155Z,71.03
2019-02-09T18:23:30.052Z,83.53
2019-02-09T18:26:35.997Z,135.80
2019-02-09T18:29:41.879Z,99.50
2019-02-09T18:32:47.931Z,87.80
2019-02-09T18:35:53.760Z,80.97
2019-02-09T18:38:59.655Z,72.73
2019-02-09T18:42:05.583Z,66.27
2019-02-09T18:45:12.720Z,66.10
2019-02-09T18:48:18.506Z,66.43
2019-02-09T18:51:24.410Z,64.43
2019-02-09T18:54:30.211Z,63.03
2019-02-09T18:57:36.210Z,62.17
2019-02-09T19:00:42.624Z,64.00
2019-02-09T19:03:48.523Z,65.17
2019-02-09T19:06:54.374Z,61.23
2019-02-09T19:10:00.220Z,62.20
2019-02-09T19:13:06.503Z,61.40
2019-02-09T19:16:12.496Z,62.83
2019-02-09T19:19:18.452Z,62.30
2019-02-09T19:22:27.883Z,65.20
2019-02-09T19:25:33.893Z,63.87
2019-02-09T19:28:39.708Z,67.33
2019-02-09T19:31:45.565Z,68.50
2019-02-09T19:34:51.351Z,88.57
2019-02-09T19:37:57.375Z,94.03
2019-02-09T19:41:03.192Z,95.63
2019-02-09T19:44:08.961Z,77.20
2019-02-09T19:47:15.759Z,73.90
2019-02-09T19:50:21.852Z,75.13
2019-02-09T19:53:29.621Z,76.63
2019-02-09T19:56:35.377Z,75.07
2019-02-09T19:59:41.168Z,75.77
2019-02-09T20:02:47.044Z,74.90
2019-02-09T20:05:52.799Z,84.60
2019-02-09T20:08:58.780Z,80.63
2019-02-09T20:12:07.273Z,80.77
2019-02-09T20:15:13.856Z,77.87
2019-02-09T20:18:19.733Z,78.10
2019-02-09T20:21:25.688Z,83.43
2019-02-09T20:24:31.478Z,80.07
2019-02-09T20:27:37.296Z,74.80
2019-02-09T20:30:43.541Z,70.03
2019-02-09T20:33:49.439Z,67.90
2019-02-09T20:36:55.257Z,70.83
2019-02-09T20:40:01.065Z,71.13
2019-02-09T20:43:09.200Z,74.30
2019-02-09T20:46:15.033Z,81.13
2019-02-09T20:49:20.834Z,85.43
2019-02-09T20:52:26.619Z,99.73
2019-02-09T20:55:32.509Z,115.97
2019-02-09T20:58:38.282Z,132.27
2019-02-09T21:01:44.111Z,101.90
2019-02-09T21:04:49.963Z,88.13
2019-02-09T21:07:55.893Z,99.43
2019-02-09T21:11:01.693Z,100.33
2019-02-09T21:14:07.574Z,97.70
2019-02-09T21:17:13.576Z,87.23
2019-02-09T21:20:19.571Z,105.53
2019-02-09T21:23:25.458Z,104.67
2019-02-09T21:26:31.308Z,94.83
2019-02-09T21:29:37.230Z,87.30
2019-02-09T21:32:43.136Z,82.03
2019-02-09T21:35:48.883Z,83.47
2019-02-09T21:38:55.786Z,87.30
2019-02-09T21:42:01.601Z,90.20
2019-02-09T21:45:09.156Z,92.20
2019-02-09T21:48:15.019Z,87.43
2019-02-09T21:51:21.798Z,86.37
2019-02-09T21:54:27.572Z,84.00
2019-02-09T21:57:33.380Z,79.17
2019-02-09T22:00:41.265Z,78.13
2019-02-09T22:03:47.042Z,79.77
2019-02-09T22:06:52.824Z,77.13
2019-02-09T22:10:01.637Z,75.60
2019-02-09T22:13:07.797Z,75.90
2019-02-09T22:16:13.755Z,73.07
2019-02-09T22:19:19.573Z,80.07
2019-02-09T22:22:28.803Z,71.03
2019-02-09T22:25:34.681Z,69.43
2019-02-09T22:28:40.456Z,64.77
2019-02-09T22:31:46.437Z,54.37
2019-02-09T22:34:52.234Z,60.40
2019-02-09T22:37:59.118Z,51.27
2019-02-09T22:41:05.008Z,52.10
2019-02-09T22:44:10.818Z,50.43
2019-02-09T22:47:16.615Z,51.37
2019-02-09T22:50:30.967Z,48.60
2019-02-09T22:53:36.848Z,43.87
2019-02-09T22:56:42.638Z,45.47
2019-02-09T22:59:48.642Z,42.97
2019-02-09T23:02:54.510Z,40.50
2019-02-09T23:06:41.797Z,38.10
2019-02-09T23:09:47.598Z,40.77
2019-02-09T23:12:53.367Z,47.93
2019-02-09T23:15:59.272Z,36.50
2019-02-09T23:19:05.332Z,38.17
2019-02-09T23:22:11.256Z,34.37
2019-02-09T23:25:17.002Z,33.73
2019-02-09T23:28:23.888Z,34.10
2019-02-09T23:31:29.777Z,31.37
2019-02-09T23:34:35.632Z,36.87
2019-02-09T23:37:41.398Z,32.67
2019-02-09T23:40:47.168Z,31.80
2019-02-09T23:43:52.941Z,33.43
2019-02-09T23:46:58.932Z,35.63
2019-02-09T23:50:06.051Z,37.10
2019-02-09T23:53:11.834Z,33.37
2019-02-09T23:56:17.592Z,36.87
2019-02-09T23:59:23.383Z,34.80
